createdAt,value
2018-03-07T00:00:21.462Z,15.86
2018-03-07T00:02:47.241Z,15.95
2018-03-07T00:05:13.027Z,15.93
2018-03-07T00:07:38.810Z,15.96
2018-03-07T00:10:04.582Z,15.85
2018-03-07T00:12:30.574Z,15.88
2018-03-07T00:14:56.362Z,15.91
2018-03-07T00:17:23.033Z,16.00
2018-03-07T00:19:48.810Z,15.92
2018-03-07T00:22:14.646Z,15.89
2018-03-07T00:24:40.425Z,15.91
2018-03-07T00:27:06.197Z,15.87
2018-03-07T00:29:32.006Z,15.82
2018-03-07T00:31:57.782Z,15.92
2018-03-07T00:34:23.614Z,15.83
2018-03-07T00:36:49.387Z,15.76
2018-03-07T00:39:15.157Z,15.82
2018-03-07T00:41:40.937Z,15.87
2018-03-07T00:44:06.714Z,15.87
2018-03-07T00:46:33.348Z,15.90
2018-03-07T00:49:00.090Z,15.91
2018-03-07T00:51:25.861Z,15.89
2018-03-07T00:53:51.637Z,15.91
2018-03-07T00:56:17.413Z,15.91
2018-03-07T00:58:43.196Z,15.92
2018-03-07T01:01:09.002Z,15.85
2018-03-07T01:03:34.782Z,15.93
2018-03-07T01:06:00.592Z,15.88
2018-03-07T01:08:27.381Z,15.92
2018-03-07T01:10:53.153Z,15.89
2018-03-07T01:13:18.929Z,15.94
2018-03-07T01:15:44.703Z,15.98
2018-03-07T01:18:10.477Z,15.98
2018-03-07T01:20:36.307Z,15.93
2018-03-07T01:23:02.084Z,15.85
2018-03-07T01:25:27.857Z,15.88
2018-03-07T01:27:53.622Z,15.95
2018-03-07T01:30:19.400Z,16.00
2018-03-07T01:32:45.174Z,16.06
2018-03-07T01:35:10.941Z,16.01
2018-03-07T01:37:37.602Z,15.95
2018-03-07T01:40:03.397Z,15.95
2018-03-07T01:42:29.177Z,15.99
2018-03-07T01:44:54.950Z,15.99
2018-03-07T01:47:20.730Z,16.03
2018-03-07T01:49:46.539Z,15.98
2018-03-07T01:52:12.323Z,15.85
2018-03-07T01:54:38.107Z,15.95
2018-03-07T01:57:03.881Z,15.95
2018-03-07T01:59:29.658Z,16.05
2018-03-07T02:01:55.449Z,16.00
2018-03-07T02:04:21.229Z,15.98
2018-03-07T02:06:47.008Z,15.91
2018-03-07T02:09:12.781Z,15.90
2018-03-07T02:11:38.557Z,15.97
2018-03-07T02:14:04.329Z,16.00
2018-03-07T02:16:31.061Z,15.88
2018-03-07T02:18:57.857Z,15.91
2018-03-07T02:21:24.615Z,15.82
2018-03-07T02:23:50.392Z,16.03
2018-03-07T02:26:16.199Z,16.07
2018-03-07T02:28:42.953Z,16.06
2018-03-07T02:31:09.737Z,16.08
2018-03-07T02:33:36.538Z,16.04
2018-03-07T02:36:03.285Z,15.93
2018-03-07T02:38:30.031Z,15.91
2018-03-07T02:40:55.851Z,15.99
2018-03-07T02:43:22.465Z,15.97
2018-03-07T02:45:48.277Z,16.00
2018-03-07T02:48:14.081Z,15.89
2018-03-07T02:50:39.857Z,16.00
2018-03-07T02:53:05.703Z,16.03
2018-03-07T02:55:31.486Z,16.08
2018-03-07T02:57:58.218Z,15.89
2018-03-07T03:00:25.037Z,15.85
2018-03-07T03:02:51.806Z,15.90
2018-03-07T03:05:18.606Z,15.99
2018-03-07T03:07:44.451Z,16.06
2018-03-07T03:10:10.233Z,16.14
2018-03-07T03:12:37.061Z,16.09
2018-03-07T03:15:02.854Z,16.10
2018-03-07T03:17:28.664Z,15.97
2018-03-07T03:19:55.334Z,15.95
2018-03-07T03:22:21.160Z,16.01
2018-03-07T03:24:46.929Z,16.04
2018-03-07T03:27:13.542Z,16.08
2018-03-07T03:29:39.359Z,16.14
2018-03-07T03:32:05.133Z,16.06
2018-03-07T03:34:31.929Z,16.07
2018-03-07T03:36:58.749Z,16.14
2018-03-07T03:39:25.505Z,16.08
2018-03-07T03:41:51.281Z,16.08
2018-03-07T03:44:17.058Z,16.04
2018-03-07T03:46:42.837Z,15.96
2018-03-07T03:49:08.612Z,15.98
2018-03-07T03:51:35.304Z,16.06
2018-03-07T03:54:02.056Z,16.07
2018-03-07T03:56:28.761Z,16.09
2018-03-07T03:58:54.538Z,16.07
2018-03-07T04:01:20.349Z,15.91
2018-03-07T04:03:46.121Z,15.97
2018-03-07T04:06:12.877Z,16.12
2018-03-07T04:08:38.651Z,16.05
2018-03-07T04:11:05.281Z,16.11
2018-03-07T04:13:32.014Z,16.11
2018-03-07T04:15:57.789Z,15.99
2018-03-07T04:18:24.464Z,16.00
2018-03-07T04:20:50.294Z,16.01
2018-03-07T04:23:16.074Z,16.13
2018-03-07T04:25:41.857Z,16.09
2018-03-07T04:28:07.630Z,16.09
2018-03-07T04:30:33.414Z,15.96
2018-03-07T04:32:59.193Z,15.94
2018-03-07T04:35:24.965Z,16.08
2018-03-07T04:37:50.740Z,16.07
2018-03-07T04:40:16.522Z,16.14
2018-03-07T04:42:42.382Z,16.13
2018-03-07T04:45:08.154Z,15.88
2018-03-07T04:47:33.978Z,15.96
2018-03-07T04:49:59.747Z,15.96
2018-03-07T04:52:25.533Z,15.99
2018-03-07T04:54:51.306Z,15.88
2018-03-07T04:57:17.081Z,15.90
2018-03-07T04:59:42.849Z,16.01
2018-03-07T05:02:08.628Z,16.01
2018-03-07T05:04:34.413Z,16.12
2018-03-07T05:07:00.190Z,16.16
2018-03-07T05:09:25.973Z,16.17
2018-03-07T05:11:51.749Z,16.16
2018-03-07T05:14:17.519Z,16.13
2018-03-07T05:16:43.298Z,16.11
2018-03-07T05:19:09.110Z,16.13
2018-03-07T05:21:34.883Z,16.10
2018-03-07T05:24:01.518Z,16.06
2018-03-07T05:26:27.431Z,16.01
2018-03-07T05:28:53.213Z,16.09
2018-03-07T05:31:19.021Z,16.14
2018-03-07T05:33:45.773Z,16.14
2018-03-07T05:36:12.728Z,16.10
2018-03-07T05:38:38.537Z,16.06
2018-03-07T05:41:04.433Z,16.10
2018-03-07T05:43:30.305Z,16.15
2018-03-07T05:45:56.129Z,16.11
2018-03-07T05:48:22.160Z,16.16
2018-03-07T05:50:50.281Z,16.09
2018-03-07T05:53:17.132Z,16.18
2018-03-07T05:55:43.367Z,16.22
2018-03-07T05:58:10.466Z,16.22
2018-03-07T06:00:38.181Z,16.26
2018-03-07T06:03:04.058Z,16.28
2018-03-07T06:05:29.956Z,16.22
2018-03-07T06:07:55.765Z,16.26
2018-03-07T06:10:21.550Z,16.32
2018-03-07T06:12:47.537Z,16.36
2018-03-07T06:15:14.135Z,16.30
2018-03-07T06:17:39.978Z,16.36
2018-03-07T06:20:05.763Z,16.35
2018-03-07T06:22:31.540Z,16.20
2018-03-07T06:24:57.374Z,16.22
2018-03-07T06:27:24.010Z,16.19
2018-03-07T06:29:49.826Z,16.30
2018-03-07T06:32:16.500Z,16.26
2018-03-07T06:34:42.329Z,16.22
2018-03-07T06:37:08.110Z,16.22
2018-03-07T06:39:33.902Z,16.25
2018-03-07T06:41:59.690Z,16.22
2018-03-07T06:44:25.497Z,16.30
2018-03-07T06:46:51.285Z,16.26
2018-03-07T06:49:17.098Z,16.27
2018-03-07T06:51:42.873Z,16.25
2018-03-07T06:54:08.701Z,16.09
2018-03-07T06:56:34.480Z,16.07
2018-03-07T06:59:00.281Z,16.16
2018-03-07T07:01:26.918Z,16.18
2018-03-07T07:03:52.747Z,16.19
2018-03-07T07:06:18.949Z,16.20
2018-03-07T07:08:44.770Z,16.09
2018-03-07T07:11:10.551Z,16.05
2018-03-07T07:13:36.329Z,16.10
2018-03-07T07:16:02.889Z,16.21
2018-03-07T07:18:29.713Z,16.19
2018-03-07T07:20:55.500Z,16.23
2018-03-07T07:23:21.293Z,16.22
2018-03-07T07:25:47.181Z,16.10
2018-03-07T07:28:12.967Z,16.20
2018-03-07T07:30:39.757Z,16.17
2018-03-07T07:33:05.574Z,16.28
2018-03-07T07:35:32.306Z,16.33
2018-03-07T07:37:58.118Z,16.26
2018-03-07T07:40:23.894Z,16.33
2018-03-07T07:42:49.701Z,16.21
2018-03-07T07:45:16.358Z,16.25
2018-03-07T07:47:42.204Z,16.20
2018-03-07T07:50:08.036Z,16.16
2018-03-07T07:52:33.828Z,16.25
2018-03-07T07:54:59.611Z,16.22
2018-03-07T07:57:26.238Z,16.29
2018-03-07T07:59:52.024Z,16.30
2018-03-07T08:02:17.809Z,16.31
2018-03-07T08:04:43.584Z,16.30
2018-03-07T08:07:09.370Z,16.38
2018-03-07T08:09:35.149Z,16.40
2018-03-07T08:12:00.930Z,16.37
2018-03-07T08:14:26.717Z,16.29
2018-03-07T08:16:52.542Z,16.30
2018-03-07T08:19:18.323Z,16.30
2018-03-07T08:21:44.097Z,16.37
2018-03-07T08:24:10.758Z,16.40
2018-03-07T08:26:36.531Z,16.30
2018-03-07T08:29:02.314Z,16.28
2018-03-07T08:31:28.513Z,16.24
2018-03-07T08:33:54.493Z,16.17
2018-03-07T08:36:20.305Z,16.28
2018-03-07T08:38:46.086Z,16.30
2018-03-07T08:41:11.867Z,16.27
2018-03-07T08:43:37.651Z,16.26
2018-03-07T08:46:03.441Z,16.29
2018-03-07T08:48:29.315Z,16.22
2018-03-07T08:50:55.125Z,16.20
2018-03-07T08:53:20.969Z,16.29
2018-03-07T08:55:46.785Z,16.30
2018-03-07T08:58:12.580Z,16.28
2018-03-07T09:00:38.466Z,16.22
2018-03-07T09:03:04.253Z,16.20
2018-03-07T09:05:30.887Z,16.26
2018-03-07T09:07:56.722Z,16.30
2018-03-07T09:10:22.677Z,16.21
2018-03-07T09:12:48.458Z,16.19
2018-03-07T09:15:14.237Z,16.26
2018-03-07T09:17:40.022Z,16.19
2018-03-07T09:20:05.793Z,16.16
2018-03-07T09:22:31.577Z,16.20
2018-03-07T09:24:57.405Z,16.27
2018-03-07T09:27:23.190Z,16.29
2018-03-07T09:29:49.009Z,16.31
2018-03-07T09:32:14.786Z,16.35
2018-03-07T09:34:40.612Z,16.42
2018-03-07T09:37:07.358Z,16.30
2018-03-07T09:39:33.150Z,16.28
2018-03-07T09:41:58.971Z,16.27
2018-03-07T09:44:24.794Z,16.33
2018-03-07T09:46:50.571Z,16.39
2018-03-07T09:49:16.414Z,16.37
2018-03-07T09:51:43.127Z,16.40
2018-03-07T09:54:09.845Z,16.31
2018-03-07T09:56:35.680Z,16.24
2018-03-07T09:59:01.819Z,16.27
2018-03-07T10:01:27.594Z,16.28
2018-03-07T10:03:53.382Z,16.36
2018-03-07T10:06:20.170Z,16.26
2018-03-07T10:08:45.950Z,16.27
2018-03-07T10:11:11.770Z,16.32
2018-03-07T10:13:37.550Z,16.13
2018-03-07T10:16:04.212Z,16.23
2018-03-07T10:18:30.005Z,16.26
2018-03-07T10:20:55.790Z,16.22
2018-03-07T10:23:21.574Z,16.21
2018-03-07T10:25:47.409Z,16.14
2018-03-07T10:28:14.112Z,16.19
2018-03-07T10:30:39.898Z,16.26
2018-03-07T10:33:12.712Z,16.24
2018-03-07T10:35:39.317Z,16.33
2018-03-07T10:38:05.089Z,16.24
2018-03-07T10:40:30.876Z,16.38
2018-03-07T10:42:57.661Z,16.27
2018-03-07T10:45:24.445Z,16.26
2018-03-07T10:47:51.167Z,16.13
2018-03-07T10:50:16.951Z,16.22
2018-03-07T10:52:42.770Z,16.27
2018-03-07T10:55:08.546Z,16.20
2018-03-07T10:57:34.332Z,16.22
2018-03-07T11:00:00.146Z,16.21
2018-03-07T11:02:26.885Z,16.21
2018-03-07T11:04:53.698Z,16.28
2018-03-07T11:07:20.471Z,16.29
2018-03-07T11:09:46.245Z,16.25
2018-03-07T11:12:12.026Z,16.21
2018-03-07T11:14:38.727Z,16.10
2018-03-07T11:17:04.510Z,16.17
2018-03-07T11:19:30.290Z,16.29
2018-03-07T11:21:56.078Z,16.35
2018-03-07T11:24:22.713Z,16.33
2018-03-07T11:26:48.527Z,16.40
2018-03-07T11:29:14.314Z,16.40
2018-03-07T11:31:40.138Z,16.42
2018-03-07T11:34:06.866Z,16.37
2018-03-07T11:36:32.694Z,16.35
2018-03-07T11:38:58.482Z,16.40
2018-03-07T11:41:24.262Z,16.44
2018-03-07T11:43:50.047Z,16.39
2018-03-07T11:46:16.670Z,16.46
2018-03-07T11:48:43.416Z,16.47
2018-03-07T11:51:09.198Z,16.36
2018-03-07T11:53:34.975Z,16.35
2018-03-07T11:56:01.830Z,16.40
2018-03-07T11:58:28.598Z,16.38
2018-03-07T12:00:54.381Z,16.37
2018-03-07T12:03:20.207Z,16.46
2018-03-07T12:05:47.039Z,16.51
2018-03-07T12:08:12.823Z,16.30
2018-03-07T12:10:38.601Z,16.36
2018-03-07T12:13:04.382Z,16.37
2018-03-07T12:15:30.162Z,16.40
2018-03-07T12:17:55.937Z,16.33
2018-03-07T12:20:22.534Z,16.34
2018-03-07T12:22:48.313Z,16.39
2018-03-07T12:25:14.141Z,16.44
2018-03-07T12:27:39.934Z,16.35
2018-03-07T12:30:05.740Z,16.36
2018-03-07T12:32:31.523Z,16.38
2018-03-07T12:34:57.306Z,16.39
2018-03-07T12:37:23.090Z,16.40
2018-03-07T12:39:48.866Z,16.34
2018-03-07T12:42:14.650Z,16.40
2018-03-07T12:44:40.446Z,16.42
2018-03-07T12:47:06.242Z,16.36
2018-03-07T12:49:32.023Z,16.33
2018-03-07T12:51:57.805Z,16.37
2018-03-07T12:54:23.586Z,16.31
2018-03-07T12:56:49.360Z,16.28
2018-03-07T12:59:15.878Z,16.30
2018-03-07T13:01:42.441Z,16.27
2018-03-07T13:04:09.275Z,16.29
2018-03-07T13:06:35.992Z,16.30
2018-03-07T13:09:01.816Z,16.38
2018-03-07T13:11:27.590Z,16.28
2018-03-07T13:13:54.332Z,16.32
2018-03-07T13:16:21.070Z,16.39
2018-03-07T13:18:47.781Z,16.32
2018-03-07T13:21:14.509Z,16.39
2018-03-07T13:23:41.300Z,16.41
2018-03-07T13:26:07.078Z,16.45
2018-03-07T13:28:32.857Z,16.47
2018-03-07T13:30:59.595Z,16.36
2018-03-07T13:33:25.419Z,16.36
2018-03-07T13:35:51.198Z,16.44
2018-03-07T13:38:18.061Z,16.39
2018-03-07T13:40:43.857Z,16.40
2018-03-07T13:43:09.835Z,16.35
2018-03-07T13:45:35.653Z,16.40
2018-03-07T13:48:01.438Z,16.35
2018-03-07T13:50:27.274Z,16.41
2018-03-07T13:52:53.058Z,16.42
2018-03-07T13:55:18.871Z,16.45
2018-03-07T13:57:44.694Z,16.53
2018-03-07T14:00:13.291Z,16.43
2018-03-07T14:02:39.082Z,16.44
2018-03-07T14:05:04.964Z,16.34
2018-03-07T14:07:30.758Z,16.34
2018-03-07T14:09:56.546Z,16.37
2018-03-07T14:12:23.266Z,16.29
2018-03-07T14:14:56.990Z,16.34
2018-03-07T14:17:23.618Z,16.34
2018-03-07T14:19:50.414Z,16.38
2018-03-07T14:22:17.174Z,16.48
2018-03-07T14:24:42.953Z,16.33
2018-03-07T14:27:08.728Z,16.36
2018-03-07T14:29:35.502Z,16.53
2018-03-07T14:32:02.247Z,16.53
2018-03-07T14:34:29.042Z,16.29
2018-03-07T14:36:55.750Z,16.33
2018-03-07T14:39:21.562Z,16.27
2018-03-07T14:41:47.377Z,16.44
2018-03-07T14:44:13.154Z,16.45
2018-03-07T14:46:39.776Z,16.47
2018-03-07T14:49:05.554Z,16.47
2018-03-07T14:51:32.398Z,16.41
2018-03-07T14:53:59.138Z,16.44
2018-03-07T14:56:25.859Z,16.34
2018-03-07T14:58:51.782Z,16.40
2018-03-07T15:01:17.558Z,16.35
2018-03-07T15:03:43.338Z,16.39
2018-03-07T15:06:09.126Z,16.39
2018-03-07T15:08:34.949Z,16.37
2018-03-07T15:11:00.730Z,16.44
2018-03-07T15:13:27.486Z,16.62
2018-03-07T15:15:53.265Z,16.52
2018-03-07T15:18:19.121Z,16.46
2018-03-07T15:20:44.910Z,16.40
2018-03-07T15:23:10.759Z,16.46
2018-03-07T15:25:43.577Z,16.49
2018-03-07T15:28:10.414Z,16.42
2018-03-07T15:30:36.198Z,16.48
2018-03-07T15:33:01.977Z,16.47
2018-03-07T15:35:27.799Z,16.41
2018-03-07T15:37:53.586Z,16.43
2018-03-07T15:40:19.359Z,16.45
2018-03-07T15:42:46.006Z,16.57
2018-03-07T15:45:12.669Z,16.60
2018-03-07T15:47:39.430Z,16.49
2018-03-07T15:50:06.130Z,16.45
2018-03-07T15:52:31.906Z,16.42
2018-03-07T15:54:57.690Z,16.39
2018-03-07T15:57:23.477Z,16.41
2018-03-07T15:59:49.262Z,16.40
2018-03-07T16:02:15.052Z,16.40
2018-03-07T16:04:40.830Z,16.38
2018-03-07T16:07:07.458Z,16.40
2018-03-07T16:09:33.245Z,16.40
2018-03-07T16:11:59.040Z,16.30
2018-03-07T16:14:25.813Z,16.45
2018-03-07T16:16:51.590Z,16.38
2018-03-07T16:19:17.371Z,16.39
2018-03-07T16:21:43.153Z,16.42
2018-03-07T16:24:08.935Z,16.44
2018-03-07T16:26:35.611Z,16.34
2018-03-07T16:29:01.398Z,16.33
2018-03-07T16:31:27.178Z,16.37
2018-03-07T16:33:52.960Z,16.38
2018-03-07T16:36:19.789Z,16.51
2018-03-07T16:38:45.571Z,16.45
2018-03-07T16:41:11.357Z,16.37
2018-03-07T16:43:37.158Z,16.42
2018-03-07T16:46:02.958Z,16.49
2018-03-07T16:48:28.738Z,16.42
2018-03-07T16:50:54.595Z,16.44
2018-03-07T16:53:20.409Z,16.46
2018-03-07T16:55:46.210Z,16.31
2018-03-07T16:58:13.001Z,16.32
2018-03-07T17:00:38.793Z,16.38
2018-03-07T17:03:04.613Z,16.35
2018-03-07T17:05:30.395Z,16.36
2018-03-07T17:07:56.321Z,16.46
2018-03-07T17:10:22.242Z,16.51
2018-03-07T17:12:48.197Z,16.59
2018-03-07T17:15:15.134Z,16.57
2018-03-07T17:17:41.014Z,16.57
2018-03-07T17:20:06.914Z,16.54
2018-03-07T17:22:33.398Z,16.55
2018-03-07T17:24:59.310Z,16.56
2018-03-07T17:27:26.118Z,16.53
2018-03-07T17:29:53.986Z,16.57
2018-03-07T17:32:21.050Z,16.51
2018-03-07T17:34:46.925Z,16.49
2018-03-07T17:37:12.784Z,16.59
2018-03-07T17:39:38.692Z,16.54
2018-03-07T17:42:04.617Z,16.53
2018-03-07T17:44:30.693Z,16.46
2018-03-07T17:46:56.664Z,16.51
2018-03-07T17:49:23.839Z,16.49
2018-03-07T17:51:49.830Z,16.51
2018-03-07T17:54:15.979Z,16.45
2018-03-07T17:56:42.010Z,16.47
2018-03-07T17:59:08.250Z,16.54
2018-03-07T18:01:34.313Z,16.54
2018-03-07T18:04:00.270Z,16.57
2018-03-07T18:06:26.384Z,16.62
2018-03-07T18:08:52.358Z,16.75
2018-03-07T18:11:18.455Z,16.64
2018-03-07T18:13:44.473Z,16.69
2018-03-07T18:16:10.633Z,16.58
2018-03-07T18:18:36.621Z,16.68
2018-03-07T18:21:07.681Z,16.60
2018-03-07T18:23:34.383Z,16.65
2018-03-07T18:26:00.261Z,16.56
2018-03-07T18:28:27.068Z,16.64
2018-03-07T18:30:53.011Z,16.49
2018-03-07T18:33:19.887Z,16.46
2018-03-07T18:35:45.761Z,16.48
2018-03-07T18:38:11.673Z,16.54
2018-03-07T18:40:37.843Z,16.53
2018-03-07T18:43:03.753Z,16.58
2018-03-07T18:45:29.734Z,16.50
2018-03-07T18:47:57.795Z,16.59
2018-03-07T18:50:23.708Z,16.45
2018-03-07T18:52:49.807Z,16.54
2018-03-07T18:55:16.238Z,16.60
2018-03-07T18:57:48.410Z,16.56
2018-03-07T19:00:14.399Z,16.50
2018-03-07T19:02:40.417Z,16.44
2018-03-07T19:05:06.318Z,16.45
2018-03-07T19:07:32.449Z,16.40
2018-03-07T19:09:58.381Z,16.45
2018-03-07T19:12:24.993Z,16.52
2018-03-07T19:14:51.600Z,16.51
2018-03-07T19:17:18.428Z,16.52
2018-03-07T19:19:44.369Z,16.48
2018-03-07T19:22:10.206Z,16.64
2018-03-07T19:24:36.727Z,16.61
2018-03-07T19:27:02.610Z,16.57
2018-03-07T19:29:29.370Z,16.59
2018-03-07T19:31:56.071Z,16.62
2018-03-07T19:34:21.904Z,16.63
2018-03-07T19:36:47.764Z,16.68
2018-03-07T19:39:14.458Z,16.59
2018-03-07T19:41:40.294Z,16.61
2018-03-07T19:44:09.299Z,16.61
2018-03-07T19:46:35.137Z,16.60
2018-03-07T19:49:00.994Z,16.60
2018-03-07T19:51:26.821Z,16.65
2018-03-07T19:53:52.714Z,16.63
2018-03-07T19:56:19.235Z,16.58
2018-03-07T19:58:45.123Z,16.61
2018-03-07T20:01:10.982Z,16.49
2018-03-07T20:03:36.869Z,16.57
2018-03-07T20:06:02.760Z,16.49
2018-03-07T20:08:28.830Z,16.58
2018-03-07T20:10:54.666Z,16.52
2018-03-07T20:13:21.190Z,16.49
2018-03-07T20:15:47.855Z,16.50
2018-03-07T20:18:13.686Z,16.55
2018-03-07T20:20:39.577Z,16.54
2018-03-07T20:23:05.522Z,16.70
2018-03-07T20:25:32.078Z,16.53
2018-03-07T20:27:58.234Z,16.57
2018-03-07T20:30:25.711Z,16.53
2018-03-07T20:32:52.087Z,16.50
2018-03-07T20:35:18.508Z,16.57
2018-03-07T20:37:44.399Z,16.47
2018-03-07T20:40:10.234Z,16.46
2018-03-07T20:42:36.094Z,16.55
2018-03-07T20:45:02.700Z,16.44
2018-03-07T20:47:28.534Z,16.40
2018-03-07T20:49:54.478Z,16.55
2018-03-07T20:52:20.320Z,16.51
2018-03-07T20:54:46.170Z,16.43
2018-03-07T20:57:12.002Z,16.41
2018-03-07T20:59:38.417Z,16.44
2018-03-07T21:02:04.298Z,16.44
2018-03-07T21:04:30.213Z,16.52
2018-03-07T21:06:56.112Z,16.55
2018-03-07T21:09:22.032Z,16.53
2018-03-07T21:11:48.993Z,16.41
2018-03-07T21:14:14.940Z,16.40
2018-03-07T21:16:40.861Z,16.47
2018-03-07T21:19:06.750Z,16.48
2018-03-07T21:21:32.840Z,16.58
2018-03-07T21:23:59.772Z,16.52
2018-03-07T21:26:25.756Z,16.46
2018-03-07T21:28:51.730Z,16.49
2018-03-07T21:31:17.619Z,16.56
2018-03-07T21:33:43.509Z,16.55
2018-03-07T21:36:09.599Z,16.55
2018-03-07T21:38:35.925Z,16.52
2018-03-07T21:41:02.143Z,16.52
2018-03-07T21:43:33.116Z,16.40
2018-03-07T21:45:59.170Z,16.50
2018-03-07T21:48:26.162Z,16.42
2018-03-07T21:50:52.213Z,16.44
2018-03-07T21:53:18.250Z,16.46
2018-03-07T21:55:44.258Z,16.48
2018-03-07T21:58:10.236Z,16.53
2018-03-07T22:00:36.937Z,16.32
2018-03-07T22:03:02.829Z,16.45
2018-03-07T22:05:28.741Z,16.50
2018-03-07T22:07:54.789Z,16.43
2018-03-07T22:10:20.735Z,16.42
2018-03-07T22:12:46.659Z,16.56
2018-03-07T22:15:12.550Z,16.44
2018-03-07T22:17:38.445Z,16.36
2018-03-07T22:20:04.406Z,16.39
2018-03-07T22:22:30.311Z,16.49
2018-03-07T22:24:56.253Z,16.50
2018-03-07T22:27:22.149Z,16.41
2018-03-07T22:29:48.036Z,16.35
2018-03-07T22:32:13.925Z,16.50
2018-03-07T22:34:39.904Z,16.45
2018-03-07T22:37:05.795Z,16.46
2018-03-07T22:39:31.684Z,16.35
2018-03-07T22:41:57.614Z,16.27
2018-03-07T22:44:23.490Z,16.34
2018-03-07T22:46:49.425Z,16.42
2018-03-07T22:49:17.250Z,16.55
2018-03-07T22:51:43.204Z,16.46
2018-03-07T22:54:09.096Z,16.54
2018-03-07T22:56:34.985Z,16.53
2018-03-07T22:59:01.596Z,16.42
2018-03-07T23:01:28.475Z,16.35
2018-03-07T23:03:54.367Z,16.45
2018-03-07T23:06:20.282Z,16.50
2018-03-07T23:08:46.258Z,16.44
2018-03-07T23:11:12.138Z,16.45
2018-03-07T23:13:38.107Z,16.39
2018-03-07T23:16:03.996Z,16.18
2018-03-07T23:18:29.979Z,16.31
2018-03-07T23:20:55.865Z,16.20
2018-03-07T23:23:22.745Z,16.37
2018-03-07T23:25:48.635Z,16.39
2018-03-07T23:28:14.526Z,16.31
2018-03-07T23:30:40.414Z,16.19
2018-03-07T23:33:06.304Z,16.28
2018-03-07T23:35:32.378Z,16.29
2018-03-07T23:37:58.216Z,16.42
2018-03-07T23:40:25.108Z,16.42
2018-03-07T23:42:51.869Z,16.33
2018-03-07T23:45:17.770Z,16.24
2018-03-07T23:47:44.524Z,16.17
2018-03-07T23:50:11.246Z,16.30
2018-03-07T23:52:37.118Z,16.34
2018-03-07T23:55:03.006Z,16.41
2018-03-07T23:57:29.884Z,16.34
2018-03-07T23:59:56.675Z,16.38
